createdAt,value
2023-03-23T15:59:28.108Z,7.79
2023-03-23T16:01:56.757Z,7.75
2023-03-23T16:04:26.759Z,7.71
2023-03-23T16:06:59.134Z,7.62
2023-03-23T16:09:27.529Z,7.58
2023-03-23T16:11:57.221Z,7.55
2023-03-23T16:14:25.589Z,7.55
2023-03-23T16:16:54.041Z,7.54
2023-03-23T16:19:24.587Z,7.39
2023-03-23T16:21:53.035Z,7.24
2023-03-23T16:24:22.456Z,7.13
2023-03-23T16:26:50.684Z,7.03
2023-03-23T16:29:40.079Z,6.85
2023-03-23T16:32:08.694Z,6.84
2023-03-23T16:34:38.400Z,6.77
2023-03-23T16:37:07.551Z,6.79
2023-03-23T16:39:35.941Z,6.72
2023-03-23T16:42:04.361Z,6.76
2023-03-23T16:44:34.103Z,6.65
2023-03-23T16:47:02.394Z,6.55
2023-03-23T16:49:30.744Z,6.50
2023-03-23T16:51:59.048Z,6.47
2023-03-23T16:54:27.478Z,6.46
2023-03-23T16:56:55.920Z,6.29
2023-03-23T16:59:24.219Z,6.21
2023-03-23T17:01:54.097Z,6.19
2023-03-23T17:04:22.814Z,6.10
2023-03-23T17:06:51.846Z,6.09
2023-03-23T17:09:20.186Z,6.11
2023-03-23T17:11:48.640Z,6.14
2023-03-23T17:14:16.990Z,6.16
2023-03-23T17:16:45.335Z,5.98
2023-03-23T17:19:15.757Z,5.91
2023-03-23T17:21:44.180Z,5.79
2023-03-23T17:24:12.775Z,5.77
2023-03-23T17:26:41.070Z,5.73
2023-03-23T17:29:09.369Z,5.78
2023-03-23T17:31:38.305Z,5.76
2023-03-23T17:34:06.762Z,5.75
2023-03-23T17:36:36.900Z,5.89
2023-03-23T17:39:05.431Z,5.93
2023-03-23T17:41:33.686Z,5.82
2023-03-23T17:44:02.286Z,5.76
2023-03-23T17:46:30.760Z,5.73
2023-03-23T17:48:59.016Z,5.76
2023-03-23T17:51:27.566Z,5.66
2023-03-23T17:53:57.661Z,5.68
2023-03-23T17:56:25.944Z,5.81
2023-03-23T17:58:54.200Z,5.81
2023-03-23T18:01:22.911Z,5.85
2023-03-23T18:03:51.367Z,5.77
2023-03-23T18:06:19.950Z,5.71
2023-03-23T18:08:48.232Z,5.73
2023-03-23T18:11:18.044Z,5.77
2023-03-23T18:13:46.292Z,5.88
2023-03-23T18:16:14.576Z,5.91
2023-03-23T18:18:42.854Z,5.95
2023-03-23T18:21:11.868Z,5.95
2023-03-23T18:23:49.059Z,5.93
2023-03-23T18:26:23.435Z,5.90
2023-03-23T18:28:52.732Z,6.01
2023-03-23T18:31:22.375Z,5.98
2023-03-23T18:33:54.141Z,5.94
2023-03-23T18:36:24.301Z,6.01
2023-03-23T18:38:52.641Z,6.02
2023-03-23T18:41:22.391Z,5.99
2023-03-23T18:43:50.734Z,5.91
2023-03-23T18:46:19.654Z,5.81
2023-03-23T18:48:48.093Z,5.74
2023-03-23T18:51:16.400Z,5.70
2023-03-23T18:53:44.791Z,5.69
2023-03-23T18:56:15.897Z,5.67
2023-03-23T18:58:46.108Z,5.64
2023-03-23T19:01:18.200Z,5.57
2023-03-23T19:03:47.147Z,5.59
2023-03-23T19:06:18.359Z,5.57
2023-03-23T19:08:47.491Z,5.58
2023-03-23T19:11:16.124Z,5.53
2023-03-23T19:13:58.493Z,5.53
2023-03-23T19:16:31.338Z,5.53
2023-03-23T19:18:59.742Z,5.54
2023-03-23T19:21:29.782Z,5.57
2023-03-23T19:23:59.699Z,5.64
2023-03-23T19:26:33.173Z,5.59
2023-03-23T19:29:25.306Z,5.56
2023-03-23T19:31:53.499Z,5.46
2023-03-23T19:34:22.001Z,5.40
2023-03-23T19:36:55.085Z,5.36
2023-03-23T19:39:32.558Z,5.38
2023-03-23T19:42:01.075Z,5.36
2023-03-23T19:44:30.959Z,5.40
2023-03-23T19:46:59.944Z,5.40
2023-03-23T19:49:29.004Z,5.34
2023-03-23T19:52:08.810Z,5.32
2023-03-23T19:54:41.121Z,5.37
2023-03-23T19:57:11.358Z,5.40
2023-03-23T19:59:41.078Z,5.41
2023-03-23T20:02:12.347Z,5.49
2023-03-23T20:04:41.173Z,5.58
2023-03-23T20:07:09.983Z,5.62
2023-03-23T20:09:38.921Z,5.68
2023-03-23T20:12:07.942Z,5.69
2023-03-23T20:14:38.235Z,5.79
2023-03-23T20:17:09.840Z,5.77
2023-03-23T20:19:38.407Z,5.77
2023-03-23T20:22:07.971Z,5.78
2023-03-23T20:24:37.041Z,5.84
2023-03-23T20:27:06.642Z,5.85
2023-03-23T20:29:35.085Z,5.85
2023-03-23T20:32:03.752Z,5.91
2023-03-23T20:34:33.516Z,5.91
2023-03-23T20:37:02.767Z,5.86
2023-03-23T20:39:33.955Z,5.83
2023-03-23T20:42:05.945Z,5.82
2023-03-23T20:44:36.235Z,5.81
2023-03-23T20:47:05.120Z,5.83
2023-03-23T20:49:37.201Z,5.93
2023-03-23T20:52:06.764Z,5.95
2023-03-23T20:54:38.066Z,5.98
2023-03-23T20:57:08.486Z,6.07
2023-03-23T20:59:36.857Z,6.10
2023-03-23T21:02:05.884Z,6.13
2023-03-23T21:04:37.371Z,6.21
2023-03-23T21:07:05.898Z,6.24
2023-03-23T21:09:34.223Z,6.29
2023-03-23T21:12:04.567Z,6.37
2023-03-23T21:14:33.435Z,6.37
2023-03-23T21:17:02.542Z,6.35
2023-03-23T21:19:32.108Z,6.34
2023-03-23T21:22:02.358Z,6.34
2023-03-23T21:24:32.598Z,6.47
2023-03-23T21:27:03.011Z,6.34
2023-03-23T21:29:31.648Z,6.24
2023-03-23T21:32:08.249Z,6.21
2023-03-23T21:34:38.085Z,6.20
2023-03-23T21:37:07.827Z,6.27
2023-03-23T21:39:36.398Z,6.19
2023-03-23T21:42:07.090Z,6.10
2023-03-23T21:44:36.281Z,6.09
2023-03-23T21:47:04.828Z,6.10
2023-03-23T21:49:33.508Z,6.17
2023-03-23T21:52:02.240Z,6.15
2023-03-23T21:54:34.371Z,6.09
2023-03-23T21:57:02.798Z,6.11
2023-03-23T21:59:31.217Z,6.04
2023-03-23T22:02:02.862Z,5.96
2023-03-23T22:04:31.207Z,5.88
2023-03-23T22:06:59.668Z,5.80
2023-03-23T22:09:28.239Z,5.78
2023-03-23T22:11:58.300Z,5.75
2023-03-23T22:14:26.657Z,5.70
2023-03-23T22:16:55.224Z,5.61
2023-03-23T22:19:23.570Z,5.62
2023-03-23T22:21:51.855Z,5.54
2023-03-23T22:24:20.667Z,5.41
2023-03-23T22:26:49.144Z,5.26
2023-03-23T22:29:18.929Z,5.27
2023-03-23T22:31:47.571Z,5.24
2023-03-23T22:34:18.593Z,5.31
2023-03-23T22:36:48.732Z,5.31
2023-03-23T22:39:17.146Z,5.30
2023-03-23T22:41:45.741Z,5.25
2023-03-23T22:44:18.154Z,5.25
2023-03-23T22:46:47.961Z,5.30
2023-03-23T22:49:16.757Z,5.22
2023-03-23T22:51:45.271Z,5.20
2023-03-23T22:54:13.678Z,5.19
2023-03-23T22:56:42.020Z,5.19
2023-03-23T22:59:11.151Z,5.06
2023-03-23T23:01:39.846Z,5.02
2023-03-23T23:04:09.896Z,4.99
2023-03-23T23:06:38.442Z,4.94
2023-03-23T23:09:07.092Z,4.87
2023-03-23T23:11:35.536Z,4.79
2023-03-23T23:14:05.127Z,4.75
2023-03-23T23:16:33.500Z,4.73
2023-03-23T23:19:02.123Z,4.70
2023-03-23T23:21:33.274Z,4.71
2023-03-23T23:24:01.904Z,4.74
2023-03-23T23:26:31.319Z,4.75
2023-03-23T23:29:01.254Z,4.78
2023-03-23T23:31:33.777Z,4.80
2023-03-23T23:34:03.563Z,4.85
2023-03-23T23:36:33.829Z,4.93
2023-03-23T23:39:03.456Z,4.97
2023-03-23T23:41:31.861Z,4.90
2023-03-23T23:44:01.424Z,4.84
2023-03-23T23:46:30.832Z,4.76
2023-03-23T23:48:59.641Z,4.70
2023-03-23T23:51:28.516Z,4.64
2023-03-23T23:54:01.629Z,4.65
2023-03-23T23:56:30.425Z,4.62
2023-03-23T23:58:59.174Z,4.62
